sensor_id;sensor_type;location;lat;lon;timestamp;P1;durP1;ratioP1;P2;durP2;ratioP2
41309;SDS011;27057;51.438;-0.010;2022-12-18T00:01:28;85.15;;;30.08;;
41309;SDS011;27057;51.438;-0.010;2022-12-18T00:04:01;89.45;;;33.30;;
41309;SDS011;27057;51.438;-0.010;2022-12-18T00:06:30;83.80;;;29.90;;
41309;SDS011;27057;51.438;-0.010;2022-12-18T00:08:59;74.10;;;29.25;;
41309;SDS011;27057;51.438;-0.010;2022-12-18T00:11:28;84.72;;;29.05;;
41309;SDS011;27057;51.438;-0.010;2022-12-18T00:13:57;74.65;;;27.55;;
41309;SDS011;27057;51.438;-0.010;2022-12-18T00:16:26;77.50;;;30.35;;
41309;SDS011;27057;51.438;-0.010;2022-12-18T00:18:56;85.18;;;30.25;;
41309;SDS011;27057;51.438;-0.010;2022-12-18T00:21:25;86.60;;;29.08;;
41309;SDS011;27057;51.438;-0.010;2022-12-18T00:23:54;80.95;;;29.60;;
41309;SDS011;27057;51.438;-0.010;2022-12-18T00:26:23;81.68;;;30.00;;
41309;SDS011;27057;51.438;-0.010;2022-12-18T00:29:14;76.97;;;28.95;;
41309;SDS011;27057;51.438;-0.010;2022-12-18T00:31:42;70.88;;;28.20;;
41309;SDS011;27057;51.438;-0.010;2022-12-18T00:34:11;78.35;;;28.48;;
41309;SDS011;27057;51.438;-0.010;2022-12-18T00:36:39;72.43;;;29.38;;
41309;SDS011;27057;51.438;-0.010;2022-12-18T00:39:07;92.63;;;34.20;;
41309;SDS011;27057;51.438;-0.010;2022-12-18T00:41:37;110.00;;;40.53;;
41309;SDS011;27057;51.438;-0.010;2022-12-18T00:44:26;109.00;;;40.58;;
41309;SDS011;27057;51.438;-0.010;2022-12-18T00:46:53;120.78;;;43.53;;
41309;SDS011;27057;51.438;-0.010;2022-12-18T00:49:20;120.45;;;45.70;;
41309;SDS011;27057;51.438;-0.010;2022-12-18T00:51:48;98.80;;;34.85;;
41309;SDS011;27057;51.438;-0.010;2022-12-18T00:54:17;116.57;;;40.25;;
41309;SDS011;27057;51.438;-0.010;2022-12-18T00:56:44;99.38;;;39.90;;
41309;SDS011;27057;51.438;-0.010;2022-12-18T00:59:17;92.60;;;36.88;;
41309;SDS011;27057;51.438;-0.010;2022-12-18T01:01:45;113.05;;;40.17;;
41309;SDS011;27057;51.438;-0.010;2022-12-18T01:04:13;105.78;;;37.83;;
41309;SDS011;27057;51.438;-0.010;2022-12-18T01:06:44;96.03;;;35.33;;
41309;SDS011;27057;51.438;-0.010;2022-12-18T01:09:14;96.05;;;36.88;;
41309;SDS011;27057;51.438;-0.010;2022-12-18T01:11:42;88.57;;;32.92;;
41309;SDS011;27057;51.438;-0.010;2022-12-18T01:14:11;88.20;;;35.03;;
41309;SDS011;27057;51.438;-0.010;2022-12-18T01:16:38;80.47;;;29.33;;
41309;SDS011;27057;51.438;-0.010;2022-12-18T01:19:06;71.32;;;26.90;;
41309;SDS011;27057;51.438;-0.010;2022-12-18T01:21:33;79.45;;;27.17;;
41309;SDS011;27057;51.438;-0.010;2022-12-18T01:24:03;77.68;;;27.38;;
41309;SDS011;27057;51.438;-0.010;2022-12-18T01:26:31;76.50;;;26.88;;
41309;SDS011;27057;51.438;-0.010;2022-12-18T01:28:58;79.10;;;28.58;;
41309;SDS011;27057;51.438;-0.010;2022-12-18T01:31:27;85.55;;;29.88;;
41309;SDS011;27057;51.438;-0.010;2022-12-18T01:33:56;84.97;;;29.27;;
41309;SDS011;27057;51.438;-0.010;2022-12-18T01:36:33;88.25;;;30.50;;
41309;SDS011;27057;51.438;-0.010;2022-12-18T01:39:13;83.50;;;28.92;;
41309;SDS011;27057;51.438;-0.010;2022-12-18T01:41:41;86.53;;;31.75;;
41309;SDS011;27057;51.438;-0.010;2022-12-18T01:47:18;74.20;;;27.83;;
41309;SDS011;27057;51.438;-0.010;2022-12-18T01:52:56;85.73;;;26.83;;
41309;SDS011;27057;51.438;-0.010;2022-12-18T01:55:29;61.13;;;24.77;;
41309;SDS011;27057;51.438;-0.010;2022-12-18T01:58:01;71.07;;;26.27;;
41309;SDS011;27057;51.438;-0.010;2022-12-18T02:00:30;73.95;;;26.50;;
41309;SDS011;27057;51.438;-0.010;2022-12-18T02:02:57;90.35;;;27.45;;
41309;SDS011;27057;51.438;-0.010;2022-12-18T02:08:48;76.10;;;26.25;;
41309;SDS011;27057;51.438;-0.010;2022-12-18T02:15:26;73.55;;;26.35;;
41309;SDS011;27057;51.438;-0.010;2022-12-18T02:20:07;69.72;;;24.63;;
41309;SDS011;27057;51.438;-0.010;2022-12-18T02:23:16;66.90;;;24.83;;
41309;SDS011;27057;51.438;-0.010;2022-12-18T02:31:28;76.22;;;25.83;;
41309;SDS011;27057;51.438;-0.010;2022-12-18T02:34:01;73.38;;;23.95;;
41309;SDS011;27057;51.438;-0.010;2022-12-18T02:36:36;76.20;;;24.98;;
41309;SDS011;27057;51.438;-0.010;2022-12-18T02:39:07;67.55;;;25.52;;
41309;SDS011;27057;51.438;-0.010;2022-12-18T02:41:43;72.05;;;26.50;;
41309;SDS011;27057;51.438;-0.010;2022-12-18T02:44:13;81.30;;;27.35;;
41309;SDS011;27057;51.438;-0.010;2022-12-18T02:46:45;77.55;;;25.85;;
41309;SDS011;27057;51.438;-0.010;2022-12-18T02:53:19;79.57;;;24.95;;
41309;SDS011;27057;51.438;-0.010;2022-12-18T02:55:22;70.53;;;23.25;;
41309;SDS011;27057;51.438;-0.010;2022-12-18T03:00:50;78.72;;;27.08;;
41309;SDS011;27057;51.438;-0.010;2022-12-18T03:04:12;66.65;;;24.50;;
41309;SDS011;27057;51.438;-0.010;2022-12-18T03:06:38;64.55;;;21.83;;
41309;SDS011;27057;51.438;-0.010;2022-12-18T03:09:13;73.30;;;23.73;;
41309;SDS011;27057;51.438;-0.010;2022-12-18T03:11:45;66.15;;;23.10;;
41309;SDS011;27057;51.438;-0.010;2022-12-18T03:14:35;67.90;;;22.83;;
41309;SDS011;27057;51.438;-0.010;2022-12-18T03:17:05;62.85;;;20.83;;
41309;SDS011;27057;51.438;-0.010;2022-12-18T03:19:36;66.70;;;23.05;;
41309;SDS011;27057;51.438;-0.010;2022-12-18T03:22:06;62.45;;;22.15;;
41309;SDS011;27057;51.438;-0.010;2022-12-18T03:24:43;55.08;;;18.83;;
41309;SDS011;27057;51.438;-0.010;2022-12-18T03:27:13;76.05;;;22.67;;
41309;SDS011;27057;51.438;-0.010;2022-12-18T03:29:48;60.70;;;21.08;;
41309;SDS011;27057;51.438;-0.010;2022-12-18T03:32:29;63.15;;;19.80;;
41309;SDS011;27057;51.438;-0.010;2022-12-18T03:35:00;61.58;;;20.60;;
41309;SDS011;27057;51.438;-0.010;2022-12-18T03:37:35;63.53;;;21.38;;
41309;SDS011;27057;51.438;-0.010;2022-12-18T03:40:07;57.88;;;21.55;;
41309;SDS011;27057;51.438;-0.010;2022-12-18T03:45:48;49.20;;;19.55;;
41309;SDS011;27057;51.438;-0.010;2022-12-18T03:48:16;37.63;;;15.05;;
41309;SDS011;27057;51.438;-0.010;2022-12-18T03:51:06;54.38;;;18.88;;
41309;SDS011;27057;51.438;-0.010;2022-12-18T03:53:48;62.50;;;21.17;;
41309;SDS011;27057;51.438;-0.010;2022-12-18T03:56:24;65.47;;;19.98;;
41309;SDS011;27057;51.438;-0.010;2022-12-18T03:58:55;57.47;;;20.55;;
41309;SDS011;27057;51.438;-0.010;2022-12-18T04:01:34;54.13;;;18.88;;
41309;SDS011;27057;51.438;-0.010;2022-12-18T04:04:05;81.60;;;28.02;;
41309;SDS011;27057;51.438;-0.010;2022-12-18T04:06:40;50.28;;;20.80;;
41309;SDS011;27057;51.438;-0.010;2022-12-18T04:09:11;54.05;;;19.98;;
41309;SDS011;27057;51.438;-0.010;2022-12-18T04:11:46;58.53;;;18.95;;
41309;SDS011;27057;51.438;-0.010;2022-12-18T04:14:15;54.83;;;18.48;;
41309;SDS011;27057;51.438;-0.010;2022-12-18T04:16:47;52.20;;;18.42;;
41309;SDS011;27057;51.438;-0.010;2022-12-18T04:19:17;52.88;;;18.20;;
41309;SDS011;27057;51.438;-0.010;2022-12-18T04:21:47;50.70;;;18.08;;
41309;SDS011;27057;51.438;-0.010;2022-12-18T04:24:15;58.65;;;19.40;;
41309;SDS011;27057;51.438;-0.010;2022-12-18T04:29:25;49.90;;;19.00;;
41309;SDS011;27057;51.438;-0.010;2022-12-18T04:31:52;56.33;;;19.13;;
41309;SDS011;27057;51.438;-0.010;2022-12-18T04:34:22;57.40;;;18.33;;
41309;SDS011;27057;51.438;-0.010;2022-12-18T04:36:52;54.92;;;19.23;;
41309;SDS011;27057;51.438;-0.010;2022-12-18T04:39:24;51.88;;;18.65;;
41309;SDS011;27057;51.438;-0.010;2022-12-18T04:41:55;55.45;;;18.88;;
41309;SDS011;27057;51.438;-0.010;2022-12-18T04:44:22;48.03;;;18.27;;
41309;SDS011;27057;51.438;-0.010;2022-12-18T04:46:50;67.82;;;20.08;;
41309;SDS011;27057;51.438;-0.010;2022-12-18T04:49:17;55.65;;;18.40;;
41309;SDS011;27057;51.438;-0.010;2022-12-18T04:51:44;59.85;;;19.75;;
41309;SDS011;27057;51.438;-0.010;2022-12-18T04:54:12;56.03;;;19.45;;
41309;SDS011;27057;51.438;-0.010;2022-12-18T04:56:39;50.75;;;18.48;;
41309;SDS011;27057;51.438;-0.010;2022-12-18T04:59:06;61.13;;;19.20;;
41309;SDS011;27057;51.438;-0.010;2022-12-18T05:01:34;48.67;;;18.23;;
41309;SDS011;27057;51.438;-0.010;2022-12-18T05:04:02;55.70;;;19.05;;
41309;SDS011;27057;51.438;-0.010;2022-12-18T05:06:30;60.97;;;20.05;;
41309;SDS011;27057;51.438;-0.010;2022-12-18T05:08:57;58.15;;;19.70;;
41309;SDS011;27057;51.438;-0.010;2022-12-18T05:11:25;56.42;;;20.42;;
41309;SDS011;27057;51.438;-0.010;2022-12-18T05:13:52;61.95;;;18.95;;
41309;SDS011;27057;51.438;-0.010;2022-12-18T05:16:19;63.65;;;21.17;;
41309;SDS011;27057;51.438;-0.010;2022-12-18T05:18:47;50.58;;;18.85;;
41309;SDS011;27057;51.438;-0.010;2022-12-18T05:21:14;50.28;;;19.30;;
41309;SDS011;27057;51.438;-0.010;2022-12-18T05:23:41;49.30;;;18.40;;
41309;SDS011;27057;51.438;-0.010;2022-12-18T05:26:09;59.05;;;21.50;;
41309;SDS011;27057;51.438;-0.010;2022-12-18T05:28:43;59.95;;;19.65;;
41309;SDS011;27057;51.438;-0.010;2022-12-18T05:31:10;53.15;;;20.40;;
41309;SDS011;27057;51.438;-0.010;2022-12-18T05:33:38;57.75;;;19.85;;
41309;SDS011;27057;51.438;-0.010;2022-12-18T05:36:06;65.00;;;20.60;;
41309;SDS011;27057;51.438;-0.010;2022-12-18T05:38:35;61.50;;;20.73;;
41309;SDS011;27057;51.438;-0.010;2022-12-18T05:41:04;52.47;;;19.83;;
41309;SDS011;27057;51.438;-0.010;2022-12-18T05:43:33;58.88;;;20.20;;
41309;SDS011;27057;51.438;-0.010;2022-12-18T05:46:06;65.85;;;22.35;;
41309;SDS011;27057;51.438;-0.010;2022-12-18T05:48:34;54.30;;;20.23;;
41309;SDS011;27057;51.438;-0.010;2022-12-18T05:51:14;54.70;;;19.42;;
41309;SDS011;27057;51.438;-0.010;2022-12-18T05:53:43;59.83;;;21.23;;
41309;SDS011;27057;51.438;-0.010;2022-12-18T05:56:12;55.58;;;20.83;;
41309;SDS011;27057;51.438;-0.010;2022-12-18T05:58:41;57.67;;;20.33;;
41309;SDS011;27057;51.438;-0.010;2022-12-18T06:01:10;52.85;;;19.30;;
41309;SDS011;27057;51.438;-0.010;2022-12-18T06:03:40;47.13;;;19.33;;
41309;SDS011;27057;51.438;-0.010;2022-12-18T06:06:15;52.33;;;20.92;;
41309;SDS011;27057;51.438;-0.010;2022-12-18T06:08:44;49.20;;;19.55;;
41309;SDS011;27057;51.438;-0.010;2022-12-18T06:11:12;62.58;;;21.42;;
41309;SDS011;27057;51.438;-0.010;2022-12-18T06:13:42;59.22;;;21.35;;
41309;SDS011;27057;51.438;-0.010;2022-12-18T06:16:10;58.13;;;21.23;;
41309;SDS011;27057;51.438;-0.010;2022-12-18T06:18:37;58.90;;;21.98;;
41309;SDS011;27057;51.438;-0.010;2022-12-18T06:21:05;60.33;;;21.63;;
41309;SDS011;27057;51.438;-0.010;2022-12-18T06:23:32;54.70;;;19.92;;
41309;SDS011;27057;51.438;-0.010;2022-12-18T06:26:03;64.30;;;23.02;;
41309;SDS011;27057;51.438;-0.010;2022-12-18T06:28:32;57.78;;;23.13;;
41309;SDS011;27057;51.438;-0.010;2022-12-18T06:30:59;63.88;;;23.88;;
41309;SDS011;27057;51.438;-0.010;2022-12-18T06:33:26;50.10;;;21.52;;
41309;SDS011;27057;51.438;-0.010;2022-12-18T06:35:59;58.05;;;21.30;;
41309;SDS011;27057;51.438;-0.010;2022-12-18T06:38:28;58.42;;;19.55;;
41309;SDS011;27057;51.438;-0.010;2022-12-18T06:40:55;61.15;;;21.75;;
41309;SDS011;27057;51.438;-0.010;2022-12-18T06:43:22;53.28;;;20.67;;
41309;SDS011;27057;51.438;-0.010;2022-12-18T06:45:49;62.95;;;20.73;;
41309;SDS011;27057;51.438;-0.010;2022-12-18T06:48:19;44.13;;;19.25;;
41309;SDS011;27057;51.438;-0.010;2022-12-18T06:50:46;53.15;;;20.00;;
41309;SDS011;27057;51.438;-0.010;2022-12-18T06:53:14;51.88;;;19.67;;
41309;SDS011;27057;51.438;-0.010;2022-12-18T06:55:41;64.32;;;22.60;;
41309;SDS011;27057;51.438;-0.010;2022-12-18T06:58:09;46.55;;;17.55;;
41309;SDS011;27057;51.438;-0.010;2022-12-18T07:00:37;50.28;;;20.27;;
41309;SDS011;27057;51.438;-0.010;2022-12-18T07:03:04;60.90;;;20.60;;
41309;SDS011;27057;51.438;-0.010;2022-12-18T07:05:31;53.15;;;18.63;;
41309;SDS011;27057;51.438;-0.010;2022-12-18T07:07:59;57.75;;;20.50;;
41309;SDS011;27057;51.438;-0.010;2022-12-18T07:10:26;54.92;;;19.75;;
41309;SDS011;27057;51.438;-0.010;2022-12-18T07:12:53;56.25;;;20.55;;
41309;SDS011;27057;51.438;-0.010;2022-12-18T07:15:21;49.28;;;16.65;;
41309;SDS011;27057;51.438;-0.010;2022-12-18T07:17:48;53.33;;;19.80;;
41309;SDS011;27057;51.438;-0.010;2022-12-18T07:20:15;56.47;;;21.50;;
41309;SDS011;27057;51.438;-0.010;2022-12-18T07:22:42;49.22;;;19.23;;
41309;SDS011;27057;51.438;-0.010;2022-12-18T07:25:10;63.13;;;20.52;;
41309;SDS011;27057;51.438;-0.010;2022-12-18T07:27:37;56.00;;;20.30;;
41309;SDS011;27057;51.438;-0.010;2022-12-18T07:30:04;64.68;;;20.73;;
41309;SDS011;27057;51.438;-0.010;2022-12-18T07:32:32;64.38;;;20.60;;
41309;SDS011;27057;51.438;-0.010;2022-12-18T07:34:59;58.70;;;20.42;;
41309;SDS011;27057;51.438;-0.010;2022-12-18T07:37:27;55.08;;;22.25;;
41309;SDS011;27057;51.438;-0.010;2022-12-18T07:39:54;61.35;;;19.92;;
41309;SDS011;27057;51.438;-0.010;2022-12-18T07:42:22;56.72;;;21.05;;
41309;SDS011;27057;51.438;-0.010;2022-12-18T07:44:59;52.67;;;15.50;;
41309;SDS011;27057;51.438;-0.010;2022-12-18T07:47:27;49.63;;;17.77;;
41309;SDS011;27057;51.438;-0.010;2022-12-18T07:49:55;58.15;;;20.73;;
41309;SDS011;27057;51.438;-0.010;2022-12-18T07:52:23;51.22;;;20.60;;
41309;SDS011;27057;51.438;-0.010;2022-12-18T07:54:52;51.03;;;19.35;;
41309;SDS011;27057;51.438;-0.010;2022-12-18T07:57:19;61.60;;;20.25;;
41309;SDS011;27057;51.438;-0.010;2022-12-18T08:00:06;60.95;;;19.65;;
41309;SDS011;27057;51.438;-0.010;2022-12-18T08:02:37;63.80;;;22.05;;
41309;SDS011;27057;51.438;-0.010;2022-12-18T08:05:05;66.35;;;20.60;;
41309;SDS011;27057;51.438;-0.010;2022-12-18T08:07:32;54.38;;;19.40;;
41309;SDS011;27057;51.438;-0.010;2022-12-18T08:10:00;61.00;;;20.55;;
41309;SDS011;27057;51.438;-0.010;2022-12-18T08:12:27;53.47;;;19.85;;
41309;SDS011;27057;51.438;-0.010;2022-12-18T08:14:54;57.63;;;19.48;;
41309;SDS011;27057;51.438;-0.010;2022-12-18T08:17:21;61.58;;;20.95;;
41309;SDS011;27057;51.438;-0.010;2022-12-18T08:19:49;64.80;;;18.38;;
41309;SDS011;27057;51.438;-0.010;2022-12-18T08:22:16;61.25;;;19.13;;
41309;SDS011;27057;51.438;-0.010;2022-12-18T08:24:43;57.33;;;21.60;;
41309;SDS011;27057;51.438;-0.010;2022-12-18T08:27:11;57.28;;;21.08;;
41309;SDS011;27057;51.438;-0.010;2022-12-18T08:29:55;59.88;;;22.00;;
41309;SDS011;27057;51.438;-0.010;2022-12-18T08:32:22;64.00;;;21.15;;
41309;SDS011;27057;51.438;-0.010;2022-12-18T08:34:50;57.50;;;19.88;;
41309;SDS011;27057;51.438;-0.010;2022-12-18T08:37:18;57.30;;;20.50;;
41309;SDS011;27057;51.438;-0.010;2022-12-18T08:39:45;46.83;;;20.75;;
41309;SDS011;27057;51.438;-0.010;2022-12-18T08:42:12;50.72;;;21.38;;
41309;SDS011;27057;51.438;-0.010;2022-12-18T08:44:58;61.00;;;21.50;;
41309;SDS011;27057;51.438;-0.010;2022-12-18T08:47:26;56.03;;;20.88;;
41309;SDS011;27057;51.438;-0.010;2022-12-18T08:49:53;63.05;;;22.25;;
41309;SDS011;27057;51.438;-0.010;2022-12-18T08:52:23;57.30;;;21.48;;
41309;SDS011;27057;51.438;-0.010;2022-12-18T08:54:51;70.55;;;22.00;;
41309;SDS011;27057;51.438;-0.010;2022-12-18T08:57:18;62.25;;;22.27;;
41309;SDS011;27057;51.438;-0.010;2022-12-18T08:59:45;56.65;;;20.15;;
41309;SDS011;27057;51.438;-0.010;2022-12-18T09:02:16;53.67;;;21.33;;
41309;SDS011;27057;51.438;-0.010;2022-12-18T09:04:46;54.10;;;21.60;;
41309;SDS011;27057;51.438;-0.010;2022-12-18T09:07:21;63.78;;;22.80;;
41309;SDS011;27057;51.438;-0.010;2022-12-18T09:09:48;55.47;;;21.10;;
41309;SDS011;27057;51.438;-0.010;2022-12-18T09:12:15;60.05;;;21.40;;
41309;SDS011;27057;51.438;-0.010;2022-12-18T09:14:43;54.63;;;23.60;;
41309;SDS011;27057;51.438;-0.010;2022-12-18T09:17:10;56.50;;;21.42;;
41309;SDS011;27057;51.438;-0.010;2022-12-18T09:19:37;66.32;;;21.63;;
41309;SDS011;27057;51.438;-0.010;2022-12-18T09:22:05;64.85;;;21.65;;
41309;SDS011;27057;51.438;-0.010;2022-12-18T09:24:32;66.10;;;24.02;;
41309;SDS011;27057;51.438;-0.010;2022-12-18T09:26:59;51.13;;;21.98;;
41309;SDS011;27057;51.438;-0.010;2022-12-18T09:29:27;55.35;;;22.67;;
41309;SDS011;27057;51.438;-0.010;2022-12-18T09:31:55;54.55;;;20.30;;
41309;SDS011;27057;51.438;-0.010;2022-12-18T09:34:22;56.60;;;21.65;;
41309;SDS011;27057;51.438;-0.010;2022-12-18T09:36:50;61.95;;;21.80;;
41309;SDS011;27057;51.438;-0.010;2022-12-18T09:39:18;64.43;;;23.80;;
41309;SDS011;27057;51.438;-0.010;2022-12-18T09:41:52;57.47;;;22.00;;
41309;SDS011;27057;51.438;-0.010;2022-12-18T09:46:57;58.05;;;20.33;;
41309;SDS011;27057;51.438;-0.010;2022-12-18T09:49:28;65.90;;;21.52;;
41309;SDS011;27057;51.438;-0.010;2022-12-18T09:52:19;61.17;;;22.58;;
41309;SDS011;27057;51.438;-0.010;2022-12-18T09:55:00;56.63;;;21.88;;
41309;SDS011;27057;51.438;-0.010;2022-12-18T09:57:48;68.07;;;21.13;;
41309;SDS011;27057;51.438;-0.010;2022-12-18T10:00:19;51.88;;;21.52;;
41309;SDS011;27057;51.438;-0.010;2022-12-18T10:02:50;58.38;;;20.98;;
41309;SDS011;27057;51.438;-0.010;2022-12-18T10:05:33;56.55;;;22.10;;
41309;SDS011;27057;51.438;-0.010;2022-12-18T10:08:23;56.33;;;21.08;;
41309;SDS011;27057;51.438;-0.010;2022-12-18T10:13:52;48.15;;;21.45;;
41309;SDS011;27057;51.438;-0.010;2022-12-18T10:16:29;54.08;;;19.83;;
41309;SDS011;27057;51.438;-0.010;2022-12-18T10:19:25;54.90;;;21.83;;
41309;SDS011;27057;51.438;-0.010;2022-12-18T10:24:53;49.28;;;19.95;;
41309;SDS011;27057;51.438;-0.010;2022-12-18T10:27:27;52.67;;;19.75;;
41309;SDS011;27057;51.438;-0.010;2022-12-18T10:29:55;50.28;;;19.42;;
41309;SDS011;27057;51.438;-0.010;2022-12-18T10:32:25;52.33;;;20.60;;
41309;SDS011;27057;51.438;-0.010;2022-12-18T10:34:55;53.47;;;19.20;;
41309;SDS011;27057;51.438;-0.010;2022-12-18T10:37:28;60.88;;;20.55;;
41309;SDS011;27057;51.438;-0.010;2022-12-18T10:40:07;47.85;;;20.58;;
41309;SDS011;27057;51.438;-0.010;2022-12-18T10:43:04;43.90;;;21.25;;
41309;SDS011;27057;51.438;-0.010;2022-12-18T10:45:37;48.20;;;19.15;;
41309;SDS011;27057;51.438;-0.010;2022-12-18T10:48:04;55.70;;;20.10;;
41309;SDS011;27057;51.438;-0.010;2022-12-18T10:50:46;54.70;;;20.95;;
41309;SDS011;27057;51.438;-0.010;2022-12-18T10:53:39;45.20;;;19.90;;
41309;SDS011;27057;51.438;-0.010;2022-12-18T10:56:09;51.35;;;19.50;;
41309;SDS011;27057;51.438;-0.010;2022-12-18T10:58:37;51.00;;;19.00;;
41309;SDS011;27057;51.438;-0.010;2022-12-18T11:01:08;48.05;;;17.77;;
41309;SDS011;27057;51.438;-0.010;2022-12-18T11:03:37;55.53;;;20.83;;
41309;SDS011;27057;51.438;-0.010;2022-12-18T11:06:13;46.08;;;18.58;;
41309;SDS011;27057;51.438;-0.010;2022-12-18T11:08:44;48.38;;;17.80;;
41309;SDS011;27057;51.438;-0.010;2022-12-18T11:11:24;44.85;;;19.23;;
41309;SDS011;27057;51.438;-0.010;2022-12-18T11:13:57;43.97;;;18.40;;
41309;SDS011;27057;51.438;-0.010;2022-12-18T11:16:29;52.72;;;21.55;;
41309;SDS011;27057;51.438;-0.010;2022-12-18T11:19:12;47.50;;;19.27;;
41309;SDS011;27057;51.438;-0.010;2022-12-18T11:21:59;41.83;;;18.60;;
41309;SDS011;27057;51.438;-0.010;2022-12-18T11:24:32;44.20;;;19.50;;
41309;SDS011;27057;51.438;-0.010;2022-12-18T11:27:04;50.08;;;22.27;;
41309;SDS011;27057;51.438;-0.010;2022-12-18T11:29:34;47.63;;;19.58;;
41309;SDS011;27057;51.438;-0.010;2022-12-18T11:35:16;49.60;;;21.00;;
41309;SDS011;27057;51.438;-0.010;2022-12-18T11:38:02;57.30;;;21.75;;
41309;SDS011;27057;51.438;-0.010;2022-12-18T11:40:37;53.17;;;21.55;;
41309;SDS011;27057;51.438;-0.010;2022-12-18T11:43:15;56.30;;;20.50;;
41309;SDS011;27057;51.438;-0.010;2022-12-18T11:45:55;52.60;;;21.40;;
41309;SDS011;27057;51.438;-0.010;2022-12-18T11:51:35;42.05;;;20.02;;
41309;SDS011;27057;51.438;-0.010;2022-12-18T11:54:12;54.63;;;19.95;;
41309;SDS011;27057;51.438;-0.010;2022-12-18T11:57:16;60.58;;;20.90;;
41309;SDS011;27057;51.438;-0.010;2022-12-18T11:59:49;50.45;;;19.83;;
41309;SDS011;27057;51.438;-0.010;2022-12-18T12:02:39;58.50;;;22.85;;
41309;SDS011;27057;51.438;-0.010;2022-12-18T12:26:46;24.90;;;11.70;;
41309;SDS011;27057;51.438;-0.010;2022-12-18T12:32:21;50.60;;;20.42;;
41309;SDS011;27057;51.438;-0.010;2022-12-18T12:40:33;39.45;;;16.63;;
41309;SDS011;27057;51.438;-0.010;2022-12-18T12:46:19;53.28;;;18.15;;
41309;SDS011;27057;51.438;-0.010;2022-12-18T12:48:55;45.50;;;19.08;;
41309;SDS011;27057;51.438;-0.010;2022-12-18T12:51:30;50.38;;;18.70;;
41309;SDS011;27057;51.438;-0.010;2022-12-18T12:54:03;28.67;;;13.95;;
41309;SDS011;27057;51.438;-0.010;2022-12-18T12:56:38;50.25;;;20.30;;
41309;SDS011;27057;51.438;-0.010;2022-12-18T13:01:57;48.72;;;20.20;;
41309;SDS011;27057;51.438;-0.010;2022-12-18T13:04:42;42.20;;;18.95;;
41309;SDS011;27057;51.438;-0.010;2022-12-18T13:07:35;42.20;;;18.23;;
41309;SDS011;27057;51.438;-0.010;2022-12-18T13:12:53;44.83;;;18.98;;
41309;SDS011;27057;51.438;-0.010;2022-12-18T13:21:01;46.38;;;19.15;;
41309;SDS011;27057;51.438;-0.010;2022-12-18T13:23:35;26.35;;;13.68;;
41309;SDS011;27057;51.438;-0.010;2022-12-18T13:34:25;27.40;;;14.13;;
41309;SDS011;27057;51.438;-0.010;2022-12-18T13:36:56;43.10;;;19.80;;
41309;SDS011;27057;51.438;-0.010;2022-12-18T13:39:45;42.33;;;17.25;;
41309;SDS011;27057;51.438;-0.010;2022-12-18T13:45:00;36.85;;;17.63;;
41309;SDS011;27057;51.438;-0.010;2022-12-18T13:47:31;43.03;;;17.73;;
41309;SDS011;27057;51.438;-0.010;2022-12-18T13:50:38;32.75;;;16.80;;
41309;SDS011;27057;51.438;-0.010;2022-12-18T13:53:02;36.65;;;17.33;;
41309;SDS011;27057;51.438;-0.010;2022-12-18T13:55:31;33.63;;;16.10;;
41309;SDS011;27057;51.438;-0.010;2022-12-18T13:58:06;35.28;;;16.25;;
41309;SDS011;27057;51.438;-0.010;2022-12-18T14:00:33;27.13;;;13.60;;
41309;SDS011;27057;51.438;-0.010;2022-12-18T14:03:00;35.05;;;16.67;;
41309;SDS011;27057;51.438;-0.010;2022-12-18T14:05:32;35.33;;;14.45;;
41309;SDS011;27057;51.438;-0.010;2022-12-18T14:08:04;37.78;;;15.50;;
41309;SDS011;27057;51.438;-0.010;2022-12-18T14:10:40;30.63;;;13.55;;
41309;SDS011;27057;51.438;-0.010;2022-12-18T14:13:17;27.23;;;12.85;;
41309;SDS011;27057;51.438;-0.010;2022-12-18T14:15:50;26.45;;;12.27;;
41309;SDS011;27057;51.438;-0.010;2022-12-18T14:21:30;33.58;;;11.95;;
41309;SDS011;27057;51.438;-0.010;2022-12-18T14:26:44;16.85;;;8.82;;
41309;SDS011;27057;51.438;-0.010;2022-12-18T14:29:25;24.38;;;11.35;;
41309;SDS011;27057;51.438;-0.010;2022-12-18T14:32:07;26.63;;;12.45;;
41309;SDS011;27057;51.438;-0.010;2022-12-18T14:34:50;24.30;;;11.65;;
41309;SDS011;27057;51.438;-0.010;2022-12-18T14:37:25;23.27;;;11.05;;
41309;SDS011;27057;51.438;-0.010;2022-12-18T14:39:54;22.45;;;10.93;;
41309;SDS011;27057;51.438;-0.010;2022-12-18T14:42:32;27.73;;;13.32;;
41309;SDS011;27057;51.438;-0.010;2022-12-18T14:48:12;35.55;;;13.48;;
41309;SDS011;27057;51.438;-0.010;2022-12-18T14:50:45;15.75;;;7.40;;
41309;SDS011;27057;51.438;-0.010;2022-12-18T14:53:33;26.60;;;11.73;;
41309;SDS011;27057;51.438;-0.010;2022-12-18T14:56:24;24.40;;;11.52;;
41309;SDS011;27057;51.438;-0.010;2022-12-18T14:59:00;27.15;;;12.45;;
41309;SDS011;27057;51.438;-0.010;2022-12-18T15:01:29;22.27;;;9.15;;
41309;SDS011;27057;51.438;-0.010;2022-12-18T15:04:02;24.85;;;11.85;;
41309;SDS011;27057;51.438;-0.010;2022-12-18T15:06:36;28.58;;;10.90;;
41309;SDS011;27057;51.438;-0.010;2022-12-18T15:09:21;24.73;;;10.68;;
41309;SDS011;27057;51.438;-0.010;2022-12-18T15:11:55;25.30;;;11.40;;
41309;SDS011;27057;51.438;-0.010;2022-12-18T15:17:05;30.92;;;12.77;;
41309;SDS011;27057;51.438;-0.010;2022-12-18T15:19:42;25.35;;;11.70;;
41309;SDS011;27057;51.438;-0.010;2022-12-18T15:22:33;24.95;;;11.30;;
41309;SDS011;27057;51.438;-0.010;2022-12-18T15:25:01;27.02;;;12.07;;
41309;SDS011;27057;51.438;-0.010;2022-12-18T15:27:33;23.90;;;10.93;;
41309;SDS011;27057;51.438;-0.010;2022-12-18T15:32:39;26.77;;;12.20;;
41309;SDS011;27057;51.438;-0.010;2022-12-18T15:37:37;29.23;;;11.13;;
41309;SDS011;27057;51.438;-0.010;2022-12-18T15:40:06;22.23;;;10.45;;
41309;SDS011;27057;51.438;-0.010;2022-12-18T15:42:38;19.33;;;9.77;;
41309;SDS011;27057;51.438;-0.010;2022-12-18T15:45:24;27.80;;;11.57;;
41309;SDS011;27057;51.438;-0.010;2022-12-18T15:47:52;22.48;;;11.02;;
41309;SDS011;27057;51.438;-0.010;2022-12-18T15:50:20;20.52;;;10.98;;
41309;SDS011;27057;51.438;-0.010;2022-12-18T15:52:48;24.70;;;11.50;;
41309;SDS011;27057;51.438;-0.010;2022-12-18T15:55:22;26.10;;;11.05;;
41309;SDS011;27057;51.438;-0.010;2022-12-18T15:58:09;25.58;;;11.18;;
41309;SDS011;27057;51.438;-0.010;2022-12-18T16:00:40;26.52;;;10.50;;
41309;SDS011;27057;51.438;-0.010;2022-12-18T16:03:10;25.80;;;10.23;;
41309;SDS011;27057;51.438;-0.010;2022-12-18T16:05:38;21.98;;;10.50;;
41309;SDS011;27057;51.438;-0.010;2022-12-18T16:08:06;23.00;;;11.13;;
41309;SDS011;27057;51.438;-0.010;2022-12-18T16:10:33;20.77;;;10.35;;
41309;SDS011;27057;51.438;-0.010;2022-12-18T16:13:01;21.30;;;9.45;;
41309;SDS011;27057;51.438;-0.010;2022-12-18T16:15:29;20.73;;;9.02;;
41309;SDS011;27057;51.438;-0.010;2022-12-18T16:17:56;17.00;;;8.18;;
41309;SDS011;27057;51.438;-0.010;2022-12-18T16:20:24;18.13;;;9.27;;
41309;SDS011;27057;51.438;-0.010;2022-12-18T16:22:51;17.25;;;9.02;;
41309;SDS011;27057;51.438;-0.010;2022-12-18T16:25:23;19.55;;;8.02;;
41309;SDS011;27057;51.438;-0.010;2022-12-18T16:27:52;13.85;;;7.20;;
41309;SDS011;27057;51.438;-0.010;2022-12-18T16:30:27;16.83;;;7.57;;
41309;SDS011;27057;51.438;-0.010;2022-12-18T16:33:04;12.85;;;5.97;;
41309;SDS011;27057;51.438;-0.010;2022-12-18T16:35:33;13.23;;;6.78;;
41309;SDS011;27057;51.438;-0.010;2022-12-18T16:38:00;12.48;;;7.18;;